Time;durP1;ratioP1;P1;durP2;ratioP2;P2;SDS_P1;SDS_P2;PMS_P1;PMS_P2;Temp;Humidity;BMP_temperature;BMP_pressure;BME280_temperature;BME280_humidity;BME280_pressure;Samples;Min_cycle;Max_cycle;Signal;HPM_P1;HPM_P2
2022/03/19 00:01:29;;;;;;;19.00;12.17;;;;;;;8.65;63.45;104363.19;5057607;28;20240;-66
2022/03/19 00:03:54;;;;;;;17.37;12.00;;;;;;;8.33;64.10;104365.06;5057306;28;20185;-66
2022/03/19 00:06:20;;;;;;;22.33;14.13;;;;;;;8.13;64.98;104365.22;5058486;28;20186;-66
2022/03/19 00:08:46;;;;;;;28.37;13.23;;;;;;;8.13;65.08;104371.31;5057877;28;20527;-66
2022/03/19 00:11:11;;;;;;;20.80;14.20;;;;;;;8.54;63.92;104371.06;5057934;28;20421;-66
2022/03/19 00:13:37;;;;;;;28.63;15.97;;;;;;;8.39;64.24;104375.97;5058320;28;20523;-66
2022/03/19 00:16:02;;;;;;;24.67;14.80;;;;;;;8.16;65.35;104365.44;5057845;28;20208;-66
2022/03/19 00:18:28;;;;;;;23.70;14.13;;;;;;;8.14;65.02;104380.94;5057550;28;20268;-66
2022/03/19 00:20:53;;;;;;;20.77;14.63;;;;;;;8.05;65.17;104370.72;5057208;28;20173;-66
2022/03/19 00:23:18;;;;;;;23.13;14.50;;;;;;;8.16;65.68;104360.25;5044589;28;20198;-66
2022/03/19 00:25:44;;;;;;;22.40;15.30;;;;;;;8.26;65.27;104366.28;5037623;28;20180;-66
2022/03/19 00:28:09;;;;;;;21.10;13.53;;;;;;;8.30;64.99;104362.25;5037181;28;20194;-66
2022/03/19 00:30:35;;;;;;;20.33;12.43;;;;;;;7.93;64.69;104372.38;5037904;28;20589;-66
2022/03/19 00:33:00;;;;;;;23.13;14.20;;;;;;;7.67;66.61;104370.28;5037695;28;20444;-66
2022/03/19 00:35:25;;;;;;;21.67;14.37;;;;;;;7.93;64.91;104372.38;5038160;28;20183;-66
2022/03/19 00:37:53;;;;;;;25.07;15.07;;;;;;;7.56;65.66;104370.34;5036771;28;20460;-67
2022/03/19 00:40:21;;;;;;;27.13;14.37;;;;;;;8.16;65.53;104368.97;5037098;28;20181;-67
2022/03/19 00:42:50;;;;;;;26.90;13.47;;;;;;;7.77;65.45;104380.63;5038076;28;20409;-67
2022/03/19 00:45:16;;;;;;;25.23;14.13;;;;;;;7.76;66.73;104387.50;5037605;28;20427;-67
2022/03/19 00:47:41;;;;;;;25.43;13.70;;;;;;;8.07;65.22;104379.53;5037529;28;20432;-66
2022/03/19 00:50:07;;;;;;;19.87;12.70;;;;;;;7.69;64.42;104382.59;5038021;28;20810;-67
2022/03/19 00:52:33;;;;;;;18.13;11.93;;;;;;;7.16;65.66;104405.13;5037572;28;20181;-66
2022/03/19 00:54:58;;;;;;;25.40;13.03;;;;;;;7.59;65.94;104388.75;5037599;28;20409;-67
2022/03/19 00:57:23;;;;;;;18.70;11.90;;;;;;;7.40;65.80;104394.16;5038195;28;20437;-67
2022/03/19 00:59:49;;;;;;;16.63;10.20;;;;;;;7.41;65.93;104398.56;5037439;28;20206;-66
2022/03/19 01:02:14;;;;;;;15.67;10.37;;;;;;;7.65;65.50;104408.22;5037389;28;20229;-67
2022/03/19 01:04:40;;;;;;;17.83;10.43;;;;;;;7.17;64.65;104406.91;5037887;28;20170;-67
2022/03/19 01:07:05;;;;;;;17.20;11.07;;;;;;;7.43;64.24;104409.06;5037582;28;20175;-66
2022/03/19 01:09:30;;;;;;;16.13;10.17;;;;;;;7.06;64.37;104412.13;5036631;28;20178;-67
2022/03/19 01:11:56;;;;;;;15.13;10.47;;;;;;;7.31;65.12;104402.88;5041237;28;20248;-67
2022/03/19 01:14:21;;;;;;;18.07;9.40;;;;;;;7.06;65.11;104414.72;5039772;28;20231;-67
2022/03/19 01:16:46;;;;;;;13.70;9.70;;;;;;;7.17;64.97;104410.44;5041047;28;20163;-67
2022/03/19 01:19:12;;;;;;;15.90;8.90;;;;;;;7.08;64.87;104412.25;5041267;28;20252;-66
2022/03/19 01:21:37;;;;;;;13.43;8.77;;;;;;;7.17;64.16;104407.81;5041054;28;20177;-67
2022/03/19 01:24:03;;;;;;;15.60;8.93;;;;;;;7.57;63.75;104408.47;5040994;28;20231;-66
2022/03/19 01:26:29;;;;;;;13.23;9.10;;;;;;;7.50;62.62;104411.38;5041397;28;20213;-67
2022/03/19 01:28:54;;;;;;;21.60;9.97;;;;;;;6.93;64.26;104414.47;5040872;28;20417;-66
2022/03/19 01:31:23;;;;;;;16.63;7.90;;;;;;;7.18;63.47;104411.31;5040808;28;20228;-68
2022/03/19 01:33:49;;;;;;;14.27;8.67;;;;;;;7.52;62.96;104403.69;5041331;28;20166;-68
2022/03/19 01:36:14;;;;;;;11.60;7.47;;;;;;;7.36;64.02;104411.91;5040996;28;20420;-67
2022/03/19 01:38:39;;;;;;;11.47;7.20;;;;;;;6.93;64.38;104408.34;5040575;28;20280;-66
2022/03/19 01:41:05;;;;;;;13.63;8.27;;;;;;;6.81;64.60;104403.97;5041763;28;20424;-66
2022/03/19 01:43:30;;;;;;;17.53;8.77;;;;;;;6.56;64.73;104411.34;5040658;28;20178;-66
2022/03/19 01:45:55;;;;;;;10.03;7.00;;;;;;;6.77;64.87;104414.84;5040598;28;20560;-66
2022/03/19 01:48:21;;;;;;;13.70;7.80;;;;;;;7.05;64.36;104407.72;5040922;28;20166;-66
2022/03/19 01:50:46;;;;;;;12.57;8.07;;;;;;;6.18;65.60;104417.66;5040493;28;20189;-66
2022/03/19 01:53:11;;;;;;;11.60;7.30;;;;;;;6.56;65.17;104409.69;5040520;28;20535;-67
2022/03/19 01:55:37;;;;;;;14.80;7.80;;;;;;;6.22;65.05;104411.03;5040881;28;20195;-66
2022/03/19 01:58:02;;;;;;;14.00;7.40;;;;;;;6.12;66.26;104417.09;5039399;28;20233;-66
2022/03/19 02:00:28;;;;;;;11.80;7.17;;;;;;;6.44;65.58;104412.88;5040287;28;20544;-66
2022/03/19 02:02:54;;;;;;;13.33;7.30;;;;;;;7.15;63.70;104417.16;5043295;28;20588;-67
2022/03/19 02:05:21;;;;;;;20.30;7.23;;;;;;;6.83;63.56;104415.38;5040458;28;20257;-65
2022/03/19 02:07:47;;;;;;;10.73;6.67;;;;;;;6.83;63.58;104415.38;5040165;28;20180;-67
2022/03/19 02:10:15;;;;;;;10.43;6.93;;;;;;;6.12;64.58;104426.56;5040714;28;20662;-66
2022/03/19 02:12:41;;;;;;;11.80;7.23;;;;;;;6.49;64.07;104419.38;5053299;28;20458;-69
2022/03/19 02:15:09;;;;;;;9.43;5.77;;;;;;;9.76;63.30;104393.06;5059622;28;20440;-59
2022/03/19 02:17:34;;;;;;;20.37;7.90;;;;;;;7.84;60.37;104398.50;5060243;28;20423;-66
2022/03/19 02:20:00;;;;;;;17.77;7.30;;;;;;;6.70;62.48;104408.25;5059958;28;20416;-66
2022/03/19 02:22:27;;;;;;;18.40;7.17;;;;;;;6.42;64.79;104411.84;5059496;28;20212;-67
2022/03/19 02:27:38;;;;;;;11.30;6.77;;;;;;;5.93;65.56;104409.38;5059683;28;20470;-66
2022/03/19 02:30:06;;;;;;;10.23;5.93;;;;;;;6.26;64.69;104413.09;5057883;28;20455;-66
2022/03/19 02:32:31;;;;;;;14.70;7.20;;;;;;;6.50;64.53;104403.94;5059542;28;20280;-65
2022/03/19 02:34:57;;;;;;;12.90;6.33;;;;;;;6.41;63.99;104392.78;5059877;28;20430;-66
2022/03/19 02:37:22;;;;;;;15.93;7.13;;;;;;;5.94;64.78;104400.84;5061082;28;20178;-65
2022/03/19 02:39:48;;;;;;;10.33;6.80;;;;;;;5.59;66.17;104406.38;5061818;28;20299;-66
2022/03/19 02:42:16;;;;;;;9.07;6.13;;;;;;;5.62;66.35;104404.06;5059378;28;20205;-65
2022/03/19 02:44:43;;;;;;;11.33;6.20;;;;;;;5.32;66.27;104404.81;5059474;28;20161;-65
2022/03/19 02:47:08;;;;;;;11.00;7.43;;;;;;;5.92;65.42;104399.78;5058951;28;20416;-66
2022/03/19 02:49:34;;;;;;;11.97;5.80;;;;;;;5.43;66.48;104395.44;5059285;28;20439;-65
2022/03/19 02:52:00;;;;;;;10.40;5.57;;;;;;;5.27;67.08;104409.56;5060016;28;20249;-65
2022/03/19 02:54:26;;;;;;;12.03;5.83;;;;;;;5.69;66.09;104400.34;5059221;28;20174;-65
2022/03/19 02:56:53;;;;;;;16.63;6.50;;;;;;;5.35;66.11;104407.66;5059304;28;20761;-65
2022/03/19 02:59:21;;;;;;;10.33;6.10;;;;;;;5.36;66.85;104407.81;5059434;28;20460;-65
2022/03/19 03:01:48;;;;;;;12.23;5.60;;;;;;;5.32;67.05;104410.00;5059019;28;20455;-64
2022/03/19 03:04:13;;;;;;;15.07;6.13;;;;;;;5.22;66.64;104414.31;5059189;28;20898;-65
2022/03/19 03:06:41;;;;;;;13.50;6.23;;;;;;;5.13;67.43;104408.31;5059492;28;20415;-65
2022/03/19 03:09:08;;;;;;;13.77;6.20;;;;;;;5.55;66.25;104409.47;5058075;28;20177;-64
2022/03/19 03:11:34;;;;;;;10.70;6.67;;;;;;;5.27;66.72;104417.31;5059221;28;20424;-66
2022/03/19 03:14:00;;;;;;;14.33;7.13;;;;;;;5.21;67.36;104416.78;5059272;28;20401;-65
2022/03/19 03:16:26;;;;;;;11.20;7.17;;;;;;;5.91;65.59;104408.31;5058923;28;20208;-65
2022/03/19 03:18:53;;;;;;;12.67;6.13;;;;;;;5.17;66.93;104409.50;5057902;28;20201;-66
2022/03/19 03:21:19;;;;;;;8.97;6.17;;;;;;;5.74;66.76;104410.31;5056655;28;20761;-66
2022/03/19 03:23:45;;;;;;;17.00;6.70;;;;;;;6.00;65.13;104409.16;5039951;28;20433;-66
2022/03/19 03:26:10;;;;;;;14.33;6.67;;;;;;;5.96;64.90;104409.63;5039067;28;20712;-65
2022/03/19 03:28:38;;;;;;;14.43;6.20;;;;;;;6.23;64.24;104415.44;5038937;28;20173;-66
2022/03/19 03:31:03;;;;;;;15.33;8.60;;;;;;;6.59;62.74;104406.44;5038590;28;20197;-65
2022/03/19 03:33:29;;;;;;;9.63;7.30;;;;;;;6.14;63.84;104410.34;5038799;28;20421;-65
2022/03/19 03:35:54;;;;;;;12.60;6.33;;;;;;;6.47;63.06;104402.78;5039058;28;20170;-65
2022/03/19 03:38:19;;;;;;;9.60;6.47;;;;;;;6.45;63.22;104412.13;5038376;28;20210;-65
2022/03/19 03:40:45;;;;;;;13.30;6.90;;;;;;;5.96;64.37;104414.81;5038545;28;20174;-65
2022/03/19 03:43:11;;;;;;;15.27;5.40;;;;;;;6.07;63.93;104408.94;5038818;28;20257;-66
2022/03/19 03:45:37;;;;;;;9.80;6.30;;;;;;;6.00;64.49;104410.84;5038368;28;20218;-65
2022/03/19 03:48:02;;;;;;;11.67;6.07;;;;;;;4.94;67.02;104421.22;5038188;28;20182;-64
2022/03/19 03:50:28;;;;;;;13.13;6.00;;;;;;;4.99;67.61;104414.81;5038788;28;20417;-65
2022/03/19 03:52:53;;;;;;;12.70;6.73;;;;;;;5.94;65.22;104416.38;5038191;28;20174;-65
2022/03/19 03:55:19;;;;;;;14.07;6.57;;;;;;;6.16;64.91;104414.00;5037564;28;20174;-66
2022/03/19 03:57:44;;;;;;;14.07;6.67;;;;;;;6.05;64.15;104410.47;5037823;28;20428;-65
2022/03/19 04:00:10;;;;;;;13.77;6.20;;;;;;;5.67;65.88;104407.03;5038257;28;20166;-66
2022/03/19 04:02:36;;;;;;;12.23;6.97;;;;;;;5.60;66.64;104408.19;5038115;28;20284;-65
2022/03/19 04:05:01;;;;;;;11.40;6.03;;;;;;;5.84;65.84;104408.56;5038208;28;20421;-66
2022/03/19 04:07:27;;;;;;;10.90;6.00;;;;;;;5.47;66.06;104413.94;5037950;28;20428;-65
2022/03/19 04:09:53;;;;;;;12.03;5.40;;;;;;;5.73;65.49;104405.00;5038175;28;20252;-65
2022/03/19 04:12:19;;;;;;;8.53;5.67;;;;;;;5.84;65.14;104411.16;5038432;28;20162;-66
2022/03/19 04:14:45;;;;;;;10.80;5.60;;;;;;;5.89;65.51;104403.00;5037954;28;20421;-64
2022/03/19 04:17:10;;;;;;;11.10;5.90;;;;;;;6.02;64.69;104404.09;5037478;28;20425;-64
2022/03/19 04:19:35;;;;;;;11.90;6.30;;;;;;;6.04;64.73;104408.66;5038313;28;20210;-64
2022/03/19 04:22:01;;;;;;;12.13;7.27;;;;;;;5.93;65.28;104401.59;5037974;28;20186;-64
2022/03/19 04:24:26;;;;;;;11.67;6.70;;;;;;;6.11;64.97;104409.19;5037931;28;20170;-63
2022/03/19 04:26:51;;;;;;;12.20;6.30;;;;;;;5.93;65.57;104392.91;5038363;28;20249;-65
2022/03/19 04:29:17;;;;;;;12.33;7.00;;;;;;;5.73;65.27;104399.84;5037867;28;20182;-65
2022/03/19 04:31:42;;;;;;;12.97;6.60;;;;;;;5.96;65.63;104393.19;5037870;28;20220;-64
2022/03/19 04:34:07;;;;;;;14.93;6.80;;;;;;;5.50;65.98;104382.25;5038541;28;20253;-66
2022/03/19 04:36:37;;;;;;;10.47;6.63;;;;;;;6.05;65.48;104389.75;5037874;28;20185;-65
2022/03/19 04:39:04;;;;;;;17.30;6.93;;;;;;;5.71;65.67;104388.41;5038499;28;20446;-65
2022/03/19 04:41:29;;;;;;;12.77;6.77;;;;;;;5.90;65.60;104394.47;5039143;28;20455;-65
2022/03/19 04:43:55;;;;;;;13.17;6.90;;;;;;;6.20;64.64;104392.75;5037929;28;20821;-65
2022/03/19 04:46:21;;;;;;;15.17;7.60;;;;;;;6.02;64.46;104385.97;5037837;28;20201;-66
2022/03/19 04:48:46;;;;;;;11.90;7.40;;;;;;;5.73;65.84;104386.88;5039131;28;20178;-65
2022/03/19 04:51:13;;;;;;;15.10;7.70;;;;;;;5.33;66.55;104391.09;5041649;28;20489;-65
2022/03/19 04:53:39;;;;;;;16.27;8.50;;;;;;;5.51;66.39;104384.09;5041659;28;20170;-66
2022/03/19 04:56:06;;;;;;;9.93;7.40;;;;;;;5.60;66.29;104376.22;5041969;28;20484;-64
2022/03/19 04:58:32;;;;;;;12.80;8.07;;;;;;;5.69;65.77;104383.09;5041417;28;20587;-65
2022/03/19 05:00:57;;;;;;;16.87;7.60;;;;;;;5.74;65.95;104378.34;5040603;28;20865;-64
2022/03/19 05:03:23;;;;;;;12.13;7.50;;;;;;;5.43;66.76;104382.50;5042075;28;20415;-66
2022/03/19 05:05:48;;;;;;;16.47;8.23;;;;;;;5.64;66.27;104379.22;5041409;28;20186;-64
2022/03/19 05:08:13;;;;;;;11.77;7.10;;;;;;;5.17;67.04;104381.06;5041222;28;20433;-64
2022/03/19 05:13:22;;;;;;;13.23;6.90;;;;;;;5.52;66.34;104379.03;5041348;28;20441;-65
2022/03/19 05:15:47;;;;;;;17.47;7.70;;;;;;;5.16;67.36;104382.72;5041316;28;20417;-65
2022/03/19 05:18:13;;;;;;;11.80;6.90;;;;;;;4.96;67.81;104391.25;5041006;28;20206;-66
2022/03/19 05:20:38;;;;;;;21.47;7.63;;;;;;;4.69;69.38;104387.03;5041055;28;20182;-65
2022/03/19 05:23:06;;;;;;;18.40;6.13;;;;;;;5.11;68.95;104385.66;5044843;28;20182;-65
2022/03/19 05:25:32;;;;;;;11.50;6.60;;;;;;;5.01;69.09;104392.56;5041003;28;20175;-65
2022/03/19 05:27:57;;;;;;;16.37;7.17;;;;;;;5.03;68.12;104400.47;5040932;28;20450;-65
2022/03/19 05:30:23;;;;;;;14.10;6.30;;;;;;;5.43;67.23;104393.75;5041392;28;20291;-65
2022/03/19 05:32:48;;;;;;;11.70;5.90;;;;;;;5.45;66.67;104391.28;5040743;28;20249;-65
2022/03/19 05:35:15;;;;;;;14.70;6.50;;;;;;;5.30;67.31;104391.72;5040752;28;20174;-65
2022/03/19 05:37:40;;;;;;;15.20;5.57;;;;;;;5.25;66.87;104392.06;5040228;28;20185;-65
2022/03/19 05:40:07;;;;;;;8.83;6.10;;;;;;;4.91;68.24;104389.91;5040882;28;20427;-64
2022/03/19 05:42:33;;;;;;;11.93;8.10;;;;;;;5.32;67.52;104390.19;5040851;28;20477;-65
2022/03/19 05:44:58;;;;;;;14.43;5.50;;;;;;;5.70;66.17;104390.09;5041201;28;20440;-65
2022/03/19 05:47:23;;;;;;;8.30;5.10;;;;;;;5.51;66.39;104382.41;5040710;28;20174;-66
2022/03/19 05:49:49;;;;;;;12.70;6.47;;;;;;;5.79;65.83;104373.56;5040662;28;20224;-65
2022/03/19 05:52:15;;;;;;;11.03;5.23;;;;;;;5.87;65.60;104375.16;5040913;28;20166;-64
2022/03/19 05:54:42;;;;;;;13.77;6.53;;;;;;;5.72;65.73;104378.22;5040087;28;20201;-68
2022/03/19 05:57:08;;;;;;;10.23;5.20;;;;;;;5.64;65.81;104381.81;5040569;28;20419;-67
2022/03/19 05:59:33;;;;;;;13.97;5.53;;;;;;;5.23;65.73;104389.34;5040261;28;20449;-66
2022/03/19 06:01:58;;;;;;;12.10;5.40;;;;;;;5.53;65.84;104393.81;5039597;28;20540;-67
2022/03/19 06:04:23;;;;;;;7.90;6.00;;;;;;;5.74;65.07;104387.03;5040328;28;20201;-66
2022/03/19 06:06:49;;;;;;;17.80;6.67;;;;;;;5.54;66.16;104385.25;5040871;28;20185;-67
2022/03/19 06:09:14;;;;;;;11.17;5.43;;;;;;;5.34;65.59;104391.22;5040116;28;20551;-67
2022/03/19 06:11:42;;;;;;;12.73;5.80;;;;;;;5.45;66.38;104391.28;5040349;28;20452;-68
2022/03/19 06:14:07;;;;;;;12.43;5.77;;;;;;;4.74;67.58;104398.72;5040560;28;20301;-67
2022/03/19 06:16:33;;;;;;;10.53;5.33;;;;;;;5.51;66.49;104394.44;5040071;28;20512;-67
2022/03/19 06:18:58;;;;;;;12.93;5.97;;;;;;;5.08;66.80;104398.31;5039802;28;20248;-67
2022/03/19 06:21:23;;;;;;;8.20;5.43;;;;;;;4.82;68.44;104410.66;5044750;28;20186;-67
2022/03/19 06:23:52;;;;;;;9.23;5.27;;;;;;;4.77;69.08;104413.59;5040061;28;20182;-67
2022/03/19 06:26:19;;;;;;;7.90;5.17;;;;;;;6.14;64.75;104401.69;5039945;28;20256;-67
2022/03/19 06:28:45;;;;;;;7.87;5.17;;;;;;;7.47;59.06;104394.63;5040124;28;20683;-67
2022/03/19 06:31:10;;;;;;;8.90;5.10;;;;;;;7.72;58.30;104393.22;5039807;28;20425;-66
2022/03/19 06:33:39;;;;;;;10.63;5.00;;;;;;;8.45;57.03;104383.34;5039685;28;20189;-67
2022/03/19 06:38:48;;;;;;;9.10;5.50;;;;;;;12.23;46.97;104366.78;5039741;28;20479;-67
2022/03/19 06:41:14;;;;;;;12.40;4.60;;;;;;;11.70;46.43;104366.91;5045033;28;20387;-65
2022/03/19 06:43:39;;;;;;;8.20;5.47;;;;;;;10.87;48.97;104372.88;5041569;28;20237;-67
2022/03/19 06:46:05;;;;;;;9.00;4.90;;;;;;;10.34;50.04;104377.13;5039399;28;20543;-67
2022/03/19 06:48:30;;;;;;;9.07;4.87;;;;;;;9.75;50.33;104365.19;5039864;28;20166;-67
2022/03/19 06:50:56;;;;;;;12.67;5.43;;;;;;;10.02;50.15;104375.75;5039369;28;20186;-67
2022/03/19 06:53:22;;;;;;;8.43;4.93;;;;;;;11.53;47.33;104357.97;5039474;28;20193;-68
2022/03/19 06:55:48;;;;;;;8.47;5.80;;;;;;;12.15;45.03;104367.09;5039753;28;20202;-68
2022/03/19 06:58:13;;;;;;;8.53;5.13;;;;;;;11.58;47.17;104364.41;5038973;28;20498;-67
2022/03/19 07:00:40;;;;;;;6.90;4.50;;;;;;;11.29;47.65;104363.44;5039021;28;20178;-68
2022/03/19 07:03:05;;;;;;;8.20;4.63;;;;;;;13.38;43.04;104357.75;5039632;28;20182;-68
2022/03/19 07:05:31;;;;;;;6.60;4.77;;;;;;;13.46;43.21;104352.13;5039327;28;20395;-67
2022/03/19 07:07:58;;;;;;;7.40;4.93;;;;;;;13.64;42.33;104362.72;5038893;28;20417;-67
2022/03/19 07:10:23;;;;;;;13.10;5.40;;;;;;;10.14;50.29;104380.06;5039596;28;20171;-67
2022/03/19 07:12:56;;;;;;;7.33;4.37;;;;;;;10.85;48.30;104375.38;5038674;28;20438;-68
2022/03/19 07:15:24;;;;;;;9.17;4.73;;;;;;;11.42;48.69;104365.13;5039077;28;20600;-68
2022/03/19 07:17:50;;;;;;;7.57;4.70;;;;;;;11.62;52.06;104369.03;5038641;28;20403;-59
2022/03/19 07:20:16;;;;;;;7.50;4.23;;;;;;;16.04;43.31;104343.13;5038820;28;20413;-60
2022/03/19 07:23:04;;;;;;;7.27;4.13;;;;;;;13.79;43.43;104352.16;5039108;28;20413;-55
2022/03/19 07:25:31;;;;;;;10.47;4.83;;;;;;;10.40;49.01;104372.34;5038673;28;20663;-66
2022/03/19 07:27:58;;;;;;;7.17;4.20;;;;;;;11.63;47.60;104360.38;5038612;28;20768;-66
2022/03/19 07:30:24;;;;;;;7.33;4.50;;;;;;;10.95;49.02;104364.75;5037749;28;20407;-66
2022/03/19 07:32:50;;;;;;;7.10;4.37;;;;;;;12.89;45.50;104346.22;5038452;28;20490;-68
2022/03/19 07:35:15;;;;;;;7.10;4.27;;;;;;;10.19;49.81;104368.22;5038850;28;20443;-68
2022/03/19 07:37:42;;;;;;;9.00;4.67;;;;;;;10.88;49.85;104369.44;5038068;28;20198;-67
2022/03/19 07:40:09;;;;;;;8.20;5.03;;;;;;;12.20;46.02;104356.09;5038107;28;20174;-67
2022/03/19 07:42:36;;;;;;;9.40;4.53;;;;;;;11.26;47.83;104358.94;5038527;28;20395;-67
2022/03/19 07:45:05;;;;;;;7.83;4.50;;;;;;;12.21;45.47;104351.78;5038285;28;20455;-67
2022/03/19 07:47:31;;;;;;;7.70;4.63;;;;;;;13.19;44.01;104350.53;5038011;28;20391;-68
2022/03/19 07:49:56;;;;;;;11.53;4.80;;;;;;;13.00;45.34;104346.84;5038646;28;20776;-68
2022/03/19 07:52:22;;;;;;;12.07;4.90;;;;;;;11.86;46.54;104348.75;5038208;28;20444;-66
2022/03/19 07:54:47;;;;;;;7.90;4.40;;;;;;;11.98;48.20;104359.13;5038035;28;20185;-68
2022/03/19 07:57:13;;;;;;;10.97;5.33;;;;;;;11.04;50.03;104359.25;5038481;28;20499;-67
2022/03/19 07:59:39;;;;;;;10.17;4.37;;;;;;;11.21;48.76;104356.81;5037996;28;20531;-68
2022/03/19 08:02:05;;;;;;;10.10;4.60;;;;;;;13.68;43.72;104345.44;5037277;28;20423;-67
2022/03/19 08:04:30;;;;;;;6.63;4.27;;;;;;;12.40;44.62;104356.44;5038666;28;20387;-68
2022/03/19 08:06:56;;;;;;;9.50;4.70;;;;;;;11.84;46.72;104350.41;5038081;28;20197;-67
2022/03/19 08:09:23;;;;;;;9.63;4.73;;;;;;;13.26;43.98;104344.81;5037777;28;20520;-67
2022/03/19 08:11:49;;;;;;;6.00;4.23;;;;;;;11.37;46.73;104354.41;5038298;28;20188;-68
2022/03/19 08:14:15;;;;;;;4.63;4.10;;;;;;;13.14;43.51;104340.69;5037920;28;20933;-67
2022/03/19 08:16:41;;;;;;;7.17;4.37;;;;;;;14.41;41.26;104341.38;5037936;28;20413;-67
2022/03/19 08:19:07;;;;;;;7.37;4.47;;;;;;;15.27;39.91;104344.81;5037180;28;20452;-67
2022/03/19 08:21:32;;;;;;;5.60;3.87;;;;;;;12.52;44.26;104351.03;5040880;28;20786;-65
2022/03/19 08:23:57;;;;;;;5.63;4.20;;;;;;;14.24;42.26;104332.66;5038133;28;20186;-67
2022/03/19 08:26:22;;;;;;;6.37;4.10;;;;;;;17.26;36.26;104313.09;5038428;28;20166;-68
2022/03/19 08:28:48;;;;;;;5.00;4.13;;;;;;;15.51;37.77;104328.41;5053178;28;20506;-68
2022/03/19 08:31:13;;;;;;;12.57;5.47;;;;;;;14.14;41.41;104339.16;5052969;28;20170;-68
2022/03/19 08:33:38;;;;;;;6.13;4.47;;;;;;;14.33;39.75;104338.38;5057189;28;20177;-67
2022/03/19 08:36:04;;;;;;;11.40;4.30;;;;;;;13.68;43.23;104334.03;5056570;28;20188;-66
2022/03/19 08:41:13;;;;;;;6.67;4.60;;;;;;;15.06;40.06;104321.00;5056672;28;20196;-66
2022/03/19 08:43:38;;;;;;;7.47;4.40;;;;;;;16.89;36.22;104319.50;5056326;28;20419;-66
2022/03/19 08:46:05;;;;;;;8.40;4.33;;;;;;;13.66;41.67;104323.47;5057138;28;20192;-66
2022/03/19 08:48:30;;;;;;;7.13;4.87;;;;;;;15.67;38.19;104323.03;5040790;28;20173;-66
2022/03/19 08:51:39;;;;;;;5.57;3.63;;;;;;;15.16;38.14;104318.00;5056686;28;20734;-67
2022/03/19 08:53:41;;;;;;;9.10;5.10;;;;;;;16.71;37.03;104319.63;5056742;28;20239;-66
2022/03/19 08:56:06;;;;;;;6.70;5.13;;;;;;;17.70;35.22;104305.06;5056808;28;20420;-66
2022/03/19 08:58:31;;;;;;;6.00;5.20;;;;;;;18.38;34.03;104311.03;5056050;28;20502;-66
2022/03/19 09:00:57;;;;;;;10.23;5.30;;;;;;;17.62;34.37;104310.06;5056653;28;20532;-66
2022/03/19 09:03:23;;;;;;;6.70;3.90;;;;;;;15.89;36.48;104302.97;5056524;28;20201;-66
2022/03/19 09:05:48;;;;;;;8.20;4.67;;;;;;;16.35;37.05;104314.63;5056891;28;20411;-67
2022/03/19 09:08:13;;;;;;;4.63;3.80;;;;;;;16.44;36.35;104304.47;5056443;28;20172;-67
2022/03/19 09:10:39;;;;;;;7.20;4.60;;;;;;;15.71;37.90;104311.81;5056702;28;20249;-67
2022/03/19 09:13:06;;;;;;;6.20;3.97;;;;;;;15.09;39.69;104311.56;5057138;28;20178;-68
2022/03/19 09:15:31;;;;;;;7.23;4.20;;;;;;;13.08;42.54;104321.09;5056563;28;20193;-68
2022/03/19 09:17:57;;;;;;;8.43;4.50;;;;;;;13.95;40.38;104306.69;5056200;28;20813;-68
2022/03/19 09:20:23;;;;;;;5.60;4.00;;;;;;;12.77;42.81;104309.78;5056911;28;20205;-68
2022/03/19 09:22:48;;;;;;;6.30;4.27;;;;;;;14.03;40.61;104320.22;5056625;28;20179;-68
2022/03/19 09:25:14;;;;;;;5.27;3.47;;;;;;;13.15;42.27;104312.75;5056388;28;20412;-67
2022/03/19 09:27:40;;;;;;;7.40;4.13;;;;;;;16.41;36.95;104289.47;5056638;28;20170;-67
2022/03/19 09:30:07;;;;;;;5.47;3.90;;;;;;;16.79;47.64;104292.78;5056543;28;20192;-57
2022/03/19 09:32:32;;;;;;;6.80;4.10;;;;;;;15.11;38.17;104288.88;5056208;28;20268;-55
2022/03/19 09:34:58;;;;;;;7.47;4.13;;;;;;;13.89;42.18;104297.59;5058905;28;20487;-57
2022/03/19 09:37:24;;;;;;;4.63;4.13;;;;;;;12.42;45.09;104305.06;5060480;28;20189;-68
2022/03/19 09:39:49;;;;;;;4.70;3.60;;;;;;;13.19;42.64;104298.13;5060602;28;20463;-69
2022/03/19 09:42:15;;;;;;;7.50;4.47;;;;;;;14.12;40.16;104296.16;5060998;28;20174;-69
2022/03/19 09:44:43;;;;;;;4.60;3.30;;;;;;;11.75;44.69;104306.25;5060597;28;20219;-68
2022/03/19 09:47:08;;;;;;;4.70;3.90;;;;;;;14.67;40.72;104282.38;5060331;28;20563;-69
2022/03/19 09:49:33;;;;;;;4.70;4.07;;;;;;;16.21;37.42;104270.19;5060627;28;20408;-68
2022/03/19 09:52:02;;;;;;;7.47;3.90;;;;;;;14.99;37.80;104281.31;5059757;28;20447;-69
2022/03/19 09:54:28;;;;;;;5.97;4.10;;;;;;;14.84;39.04;104290.16;5059729;28;20249;-68
2022/03/19 09:56:53;;;;;;;5.30;4.23;;;;;;;16.47;36.99;104278.28;5060845;28;20408;-68
2022/03/19 09:59:19;;;;;;;6.10;3.93;;;;;;;14.30;39.90;104284.00;5059960;28;20201;-69
2022/03/19 10:01:47;;;;;;;7.10;3.90;;;;;;;14.78;38.73;104282.91;5059776;28;20250;-69
2022/03/19 10:04:17;;;;;;;5.90;3.87;;;;;;;14.91;38.39;104281.75;5060637;28;20169;-67
2022/03/19 10:09:40;;;;;;;4.80;3.40;;;;;;;12.99;42.29;104279.59;5059983;28;20415;-68
2022/03/19 10:12:11;;;;;;;4.90;3.50;;;;;;;12.21;43.41;104282.06;5059837;28;20408;-69
2022/03/19 10:14:36;;;;;;;4.80;3.90;;;;;;;12.68;43.21;104277.81;5059874;28;20436;-68
2022/03/19 10:17:02;;;;;;;7.43;4.00;;;;;;;14.94;38.55;104260.91;5059731;28;20458;-69
2022/03/19 10:19:28;;;;;;;4.53;3.90;;;;;;;15.52;42.16;104265.34;5058797;28;20208;-67
2022/03/19 10:21:54;;;;;;;7.43;3.73;;;;;;;14.07;39.62;104263.53;5059990;28;20387;-69
2022/03/19 10:24:27;;;;;;;4.30;3.63;;;;;;;15.01;37.51;104260.34;5059561;28;20219;-69
2022/03/19 10:26:53;;;;;;;4.47;3.50;;;;;;;13.56;39.75;104255.66;5059679;28;20416;-66
2022/03/19 10:29:27;;;;;;;3.43;3.13;;;;;;;13.75;39.32;104255.78;5059409;28;20411;-67
2022/03/19 10:31:59;;;;;;;5.60;3.50;;;;;;;12.29;42.14;104282.53;5059486;28;20165;-65
2022/03/19 10:34:24;;;;;;;6.13;3.47;;;;;;;12.08;43.36;104255.97;5059670;28;20465;-67
2022/03/19 10:36:49;;;;;;;6.07;3.50;;;;;;;14.86;38.97;104238.63;5059366;28;20424;-67
2022/03/19 10:39:20;;;;;;;3.67;3.03;;;;;;;14.10;38.33;104248.88;5059284;28;20205;-68
2022/03/19 10:41:46;;;;;;;3.23;2.93;;;;;;;13.59;39.24;104238.34;5059936;28;20169;-67
2022/03/19 10:44:19;;;;;;;2.87;2.53;;;;;;;12.58;40.18;104246.69;5059544;28;20434;-67
2022/03/19 10:46:49;;;;;;;3.70;2.97;;;;;;;11.92;41.84;104265.50;5057872;28;20539;-69
2022/03/19 10:49:15;;;;;;;5.43;3.33;;;;;;;12.05;42.08;104248.84;5059107;28;20390;-69
2022/03/19 10:51:45;;;;;;;5.13;3.50;;;;;;;12.83;40.91;104233.28;5058913;28;20399;-69
2022/03/19 10:54:12;;;;;;;6.23;3.60;;;;;;;12.93;41.31;104238.22;5059406;28;20402;-69
2022/03/19 10:56:37;;;;;;;3.30;3.00;;;;;;;13.45;39.88;104235.00;5058985;28;20397;-67
2022/03/19 10:59:03;;;;;;;4.00;3.53;;;;;;;14.69;36.06;104225.53;5058624;28;20844;-70
2022/03/19 11:01:32;;;;;;;4.13;2.90;;;;;;;16.33;33.72;104218.03;5058966;28;20232;-67
2022/03/19 11:04:00;;;;;;;4.13;3.00;;;;;;;15.93;34.32;104203.19;5057959;28;20519;-68
2022/03/19 11:06:26;;;;;;;3.83;3.43;;;;;;;15.43;33.37;104204.47;5058223;28;20446;-67
2022/03/19 11:08:53;;;;;;;4.10;3.20;;;;;;;13.52;37.61;104223.13;5058553;28;20462;-67
2022/03/19 11:11:32;;;;;;;4.70;3.10;;;;;;;16.90;33.22;104197.44;5041370;28;20412;-68
2022/03/19 11:13:58;;;;;;;5.17;3.33;;;;;;;16.69;32.94;104189.59;5057911;28;20416;-67
2022/03/19 11:16:26;;;;;;;5.30;3.07;;;;;;;16.32;33.18;104183.75;5057907;28;20704;-68
2022/03/19 11:18:52;;;;;;;4.80;3.80;;;;;;;16.80;33.37;104194.41;5058163;28;20811;-69
2022/03/19 11:21:18;;;;;;;5.30;3.67;;;;;;;14.51;34.97;104193.13;5058670;28;20515;-68
2022/03/19 11:24:02;;;;;;;4.33;3.53;;;;;;;14.56;35.39;104179.41;5057830;28;20499;-66
2022/03/19 11:26:28;;;;;;;6.23;3.57;;;;;;;14.68;35.54;104171.25;5057771;28;20204;-68
2022/03/19 11:28:54;;;;;;;3.40;2.97;;;;;;;12.91;39.00;104183.97;5058426;28;20423;-67
2022/03/19 11:31:25;;;;;;;3.20;2.90;;;;;;;14.04;36.48;104161.06;5053632;28;20430;-66
2022/03/19 11:33:51;;;;;;;3.93;3.20;;;;;;;13.79;36.34;104154.59;5058465;28;20180;-67